sensor_id;sensor_type;location;lat;lon;timestamp;P1;durP1;ratioP1;P2;durP2;ratioP2
67442;SDS011;54311;51.726;5.154;2022-08-19T00:02:01;19.13;;;17.30;;
67442;SDS011;54311;51.726;5.154;2022-08-19T00:04:27;19.37;;;17.60;;
67442;SDS011;54311;51.726;5.154;2022-08-19T00:06:53;17.15;;;15.65;;
67442;SDS011;54311;51.726;5.154;2022-08-19T00:09:19;16.53;;;14.90;;
67442;SDS011;54311;51.726;5.154;2022-08-19T00:11:44;13.13;;;11.93;;
67442;SDS011;54311;51.726;5.154;2022-08-19T00:14:11;17.52;;;15.73;;
67442;SDS011;54311;51.726;5.154;2022-08-19T00:16:37;17.65;;;15.95;;
67442;SDS011;54311;51.726;5.154;2022-08-19T00:19:03;17.95;;;16.38;;
67442;SDS011;54311;51.726;5.154;2022-08-19T00:21:29;20.55;;;18.65;;
67442;SDS011;54311;51.726;5.154;2022-08-19T00:23:55;19.67;;;17.88;;
67442;SDS011;54311;51.726;5.154;2022-08-19T00:26:23;24.50;;;22.10;;
67442;SDS011;54311;51.726;5.154;2022-08-19T00:28:48;25.83;;;23.17;;
67442;SDS011;54311;51.726;5.154;2022-08-19T00:31:13;24.30;;;21.70;;
67442;SDS011;54311;51.726;5.154;2022-08-19T00:33:38;26.57;;;24.00;;
67442;SDS011;54311;51.726;5.154;2022-08-19T00:36:04;26.65;;;23.98;;
67442;SDS011;54311;51.726;5.154;2022-08-19T00:38:31;28.58;;;25.70;;
67442;SDS011;54311;51.726;5.154;2022-08-19T00:40:56;31.13;;;27.85;;
67442;SDS011;54311;51.726;5.154;2022-08-19T00:43:24;32.70;;;29.30;;
67442;SDS011;54311;51.726;5.154;2022-08-19T00:45:51;31.15;;;27.80;;
67442;SDS011;54311;51.726;5.154;2022-08-19T00:48:17;32.67;;;29.27;;
67442;SDS011;54311;51.726;5.154;2022-08-19T00:50:43;33.78;;;28.23;;
67442;SDS011;54311;51.726;5.154;2022-08-19T00:53:09;33.75;;;29.70;;
67442;SDS011;54311;51.726;5.154;2022-08-19T00:55:34;31.15;;;28.05;;
67442;SDS011;54311;51.726;5.154;2022-08-19T00:58:01;32.00;;;28.63;;
67442;SDS011;54311;51.726;5.154;2022-08-19T01:00:28;30.58;;;27.58;;
67442;SDS011;54311;51.726;5.154;2022-08-19T01:02:53;29.10;;;25.95;;
67442;SDS011;54311;51.726;5.154;2022-08-19T01:05:20;25.67;;;23.17;;
67442;SDS011;54311;51.726;5.154;2022-08-19T01:07:46;26.60;;;23.90;;
67442;SDS011;54311;51.726;5.154;2022-08-19T01:10:14;25.52;;;22.85;;
67442;SDS011;54311;51.726;5.154;2022-08-19T01:12:40;25.80;;;23.38;;
67442;SDS011;54311;51.726;5.154;2022-08-19T01:15:06;24.85;;;22.40;;
67442;SDS011;54311;51.726;5.154;2022-08-19T01:17:32;26.55;;;22.55;;
67442;SDS011;54311;51.726;5.154;2022-08-19T01:19:58;23.77;;;21.35;;
67442;SDS011;54311;51.726;5.154;2022-08-19T01:22:27;23.07;;;20.87;;
67442;SDS011;54311;51.726;5.154;2022-08-19T01:24:52;21.58;;;19.52;;
67442;SDS011;54311;51.726;5.154;2022-08-19T01:27:18;21.57;;;19.43;;
67442;SDS011;54311;51.726;5.154;2022-08-19T01:29:43;17.97;;;16.07;;
67442;SDS011;54311;51.726;5.154;2022-08-19T01:32:11;19.27;;;17.40;;
67442;SDS011;54311;51.726;5.154;2022-08-19T01:34:36;19.92;;;17.92;;
67442;SDS011;54311;51.726;5.154;2022-08-19T01:37:05;20.37;;;18.37;;
67442;SDS011;54311;51.726;5.154;2022-08-19T01:39:32;21.60;;;19.50;;
67442;SDS011;54311;51.726;5.154;2022-08-19T01:41:58;23.80;;;21.03;;
67442;SDS011;54311;51.726;5.154;2022-08-19T01:44:23;23.77;;;21.03;;
67442;SDS011;54311;51.726;5.154;2022-08-19T01:46:49;23.90;;;21.33;;
67442;SDS011;54311;51.726;5.154;2022-08-19T01:49:16;25.95;;;21.85;;
67442;SDS011;54311;51.726;5.154;2022-08-19T01:51:41;22.55;;;19.95;;
67442;SDS011;54311;51.726;5.154;2022-08-19T01:54:08;22.33;;;20.23;;
67442;SDS011;54311;51.726;5.154;2022-08-19T01:56:33;23.25;;;20.88;;
67442;SDS011;54311;51.726;5.154;2022-08-19T01:59:00;27.85;;;24.08;;
67442;SDS011;54311;51.726;5.154;2022-08-19T02:01:26;27.40;;;24.73;;
67442;SDS011;54311;51.726;5.154;2022-08-19T02:03:51;26.63;;;21.60;;
67442;SDS011;54311;51.726;5.154;2022-08-19T02:06:18;24.85;;;22.27;;
67442;SDS011;54311;51.726;5.154;2022-08-19T02:08:43;26.85;;;22.15;;
67442;SDS011;54311;51.726;5.154;2022-08-19T02:11:18;23.83;;;21.00;;
67442;SDS011;54311;51.726;5.154;2022-08-19T02:13:43;21.98;;;19.77;;
67442;SDS011;54311;51.726;5.154;2022-08-19T02:16:08;26.60;;;23.10;;
67442;SDS011;54311;51.726;5.154;2022-08-19T02:18:34;31.63;;;27.38;;
67442;SDS011;54311;51.726;5.154;2022-08-19T02:21:00;29.85;;;26.75;;
67442;SDS011;54311;51.726;5.154;2022-08-19T02:23:25;31.13;;;28.03;;
67442;SDS011;54311;51.726;5.154;2022-08-19T02:25:51;32.43;;;29.20;;
67442;SDS011;54311;51.726;5.154;2022-08-19T02:28:16;32.08;;;28.67;;
67442;SDS011;54311;51.726;5.154;2022-08-19T02:30:42;33.50;;;29.57;;
67442;SDS011;54311;51.726;5.154;2022-08-19T02:33:07;34.28;;;29.38;;
67442;SDS011;54311;51.726;5.154;2022-08-19T02:35:32;33.00;;;29.60;;
67442;SDS011;54311;51.726;5.154;2022-08-19T02:37:58;30.93;;;27.63;;
67442;SDS011;54311;51.726;5.154;2022-08-19T02:40:47;29.67;;;26.67;;
67442;SDS011;54311;51.726;5.154;2022-08-19T02:43:14;31.15;;;27.65;;
67442;SDS011;54311;51.726;5.154;2022-08-19T02:45:40;31.70;;;28.17;;
67442;SDS011;54311;51.726;5.154;2022-08-19T02:48:05;31.60;;;27.90;;
67442;SDS011;54311;51.726;5.154;2022-08-19T02:50:31;31.60;;;27.27;;
67442;SDS011;54311;51.726;5.154;2022-08-19T02:52:57;32.85;;;27.42;;
67442;SDS011;54311;51.726;5.154;2022-08-19T02:55:22;30.58;;;25.83;;
67442;SDS011;54311;51.726;5.154;2022-08-19T02:57:47;29.20;;;25.77;;
67442;SDS011;54311;51.726;5.154;2022-08-19T03:00:13;28.70;;;25.65;;
67442;SDS011;54311;51.726;5.154;2022-08-19T03:02:38;36.67;;;27.00;;
67442;SDS011;54311;51.726;5.154;2022-08-19T03:05:04;28.45;;;25.33;;
67442;SDS011;54311;51.726;5.154;2022-08-19T03:07:30;30.77;;;25.60;;
67442;SDS011;54311;51.726;5.154;2022-08-19T03:09:55;28.52;;;25.55;;
67442;SDS011;54311;51.726;5.154;2022-08-19T03:12:20;35.37;;;26.53;;
67442;SDS011;54311;51.726;5.154;2022-08-19T03:14:45;34.47;;;27.43;;
67442;SDS011;54311;51.726;5.154;2022-08-19T03:17:11;31.50;;;26.88;;
67442;SDS011;54311;51.726;5.154;2022-08-19T03:19:37;30.45;;;25.92;;
67442;SDS011;54311;51.726;5.154;2022-08-19T03:22:03;29.63;;;26.10;;
67442;SDS011;54311;51.726;5.154;2022-08-19T03:24:29;30.55;;;27.25;;
67442;SDS011;54311;51.726;5.154;2022-08-19T03:26:55;27.90;;;24.90;;
67442;SDS011;54311;51.726;5.154;2022-08-19T03:29:24;31.77;;;25.92;;
67442;SDS011;54311;51.726;5.154;2022-08-19T03:31:50;29.63;;;26.40;;
67442;SDS011;54311;51.726;5.154;2022-08-19T03:34:21;28.48;;;25.45;;
67442;SDS011;54311;51.726;5.154;2022-08-19T03:36:47;29.90;;;25.45;;
67442;SDS011;54311;51.726;5.154;2022-08-19T03:39:13;28.40;;;25.05;;
67442;SDS011;54311;51.726;5.154;2022-08-19T03:41:40;29.23;;;25.45;;
67442;SDS011;54311;51.726;5.154;2022-08-19T03:44:05;30.30;;;24.83;;
67442;SDS011;54311;51.726;5.154;2022-08-19T03:46:31;28.67;;;23.80;;
67442;SDS011;54311;51.726;5.154;2022-08-19T03:48:58;29.13;;;26.02;;
67442;SDS011;54311;51.726;5.154;2022-08-19T03:51:25;29.70;;;26.67;;
67442;SDS011;54311;51.726;5.154;2022-08-19T03:53:50;33.60;;;26.85;;
67442;SDS011;54311;51.726;5.154;2022-08-19T03:56:16;29.80;;;26.63;;
67442;SDS011;54311;51.726;5.154;2022-08-19T03:58:41;34.80;;;27.93;;
67442;SDS011;54311;51.726;5.154;2022-08-19T04:01:07;32.17;;;27.45;;
67442;SDS011;54311;51.726;5.154;2022-08-19T04:03:33;31.27;;;27.95;;
67442;SDS011;54311;51.726;5.154;2022-08-19T04:05:59;32.97;;;28.30;;
67442;SDS011;54311;51.726;5.154;2022-08-19T04:08:24;33.55;;;28.50;;
67442;SDS011;54311;51.726;5.154;2022-08-19T04:10:50;33.55;;;28.48;;
67442;SDS011;54311;51.726;5.154;2022-08-19T04:13:16;35.17;;;27.97;;
67442;SDS011;54311;51.726;5.154;2022-08-19T04:15:42;34.97;;;30.02;;
67442;SDS011;54311;51.726;5.154;2022-08-19T04:18:08;32.05;;;28.63;;
67442;SDS011;54311;51.726;5.154;2022-08-19T04:20:46;38.67;;;32.85;;
67442;SDS011;54311;51.726;5.154;2022-08-19T04:23:13;45.65;;;32.65;;
67442;SDS011;54311;51.726;5.154;2022-08-19T04:25:39;48.95;;;37.72;;
67442;SDS011;54311;51.726;5.154;2022-08-19T04:28:05;52.88;;;38.08;;
67442;SDS011;54311;51.726;5.154;2022-08-19T04:30:30;54.05;;;39.92;;
67442;SDS011;54311;51.726;5.154;2022-08-19T04:32:56;59.45;;;42.90;;
67442;SDS011;54311;51.726;5.154;2022-08-19T04:35:21;65.63;;;45.20;;
67442;SDS011;54311;51.726;5.154;2022-08-19T04:37:47;69.05;;;43.58;;
67442;SDS011;54311;51.726;5.154;2022-08-19T04:40:12;63.83;;;44.90;;
67442;SDS011;54311;51.726;5.154;2022-08-19T04:42:56;64.50;;;45.30;;
67442;SDS011;54311;51.726;5.154;2022-08-19T04:45:21;67.13;;;45.00;;
67442;SDS011;54311;51.726;5.154;2022-08-19T04:47:46;68.40;;;46.30;;
67442;SDS011;54311;51.726;5.154;2022-08-19T04:50:12;71.85;;;47.47;;
67442;SDS011;54311;51.726;5.154;2022-08-19T04:52:38;70.28;;;48.10;;
67442;SDS011;54311;51.726;5.154;2022-08-19T04:55:08;67.18;;;46.92;;
67442;SDS011;54311;51.726;5.154;2022-08-19T04:57:33;71.97;;;47.40;;
67442;SDS011;54311;51.726;5.154;2022-08-19T04:59:58;72.53;;;49.03;;
67442;SDS011;54311;51.726;5.154;2022-08-19T05:02:23;71.13;;;47.37;;
67442;SDS011;54311;51.726;5.154;2022-08-19T05:04:49;70.47;;;48.78;;
67442;SDS011;54311;51.726;5.154;2022-08-19T05:07:14;71.15;;;46.95;;
67442;SDS011;54311;51.726;5.154;2022-08-19T05:09:40;71.37;;;47.87;;
67442;SDS011;54311;51.726;5.154;2022-08-19T05:12:05;67.45;;;46.47;;
67442;SDS011;54311;51.726;5.154;2022-08-19T05:14:31;76.03;;;48.30;;
67442;SDS011;54311;51.726;5.154;2022-08-19T05:16:56;67.97;;;45.90;;
67442;SDS011;54311;51.726;5.154;2022-08-19T05:19:21;66.77;;;46.07;;
67442;SDS011;54311;51.726;5.154;2022-08-19T05:22:05;64.78;;;46.85;;
67442;SDS011;54311;51.726;5.154;2022-08-19T05:24:49;63.97;;;46.10;;
67442;SDS011;54311;51.726;5.154;2022-08-19T05:27:14;64.53;;;45.45;;
67442;SDS011;54311;51.726;5.154;2022-08-19T05:29:40;67.47;;;44.83;;
67442;SDS011;54311;51.726;5.154;2022-08-19T05:32:05;64.73;;;45.97;;
67442;SDS011;54311;51.726;5.154;2022-08-19T05:34:33;65.60;;;44.40;;
67442;SDS011;54311;51.726;5.154;2022-08-19T05:37:01;64.30;;;44.30;;
67442;SDS011;54311;51.726;5.154;2022-08-19T05:39:27;66.22;;;43.92;;
67442;SDS011;54311;51.726;5.154;2022-08-19T05:41:57;65.32;;;43.85;;
67442;SDS011;54311;51.726;5.154;2022-08-19T05:44:24;68.25;;;44.15;;
67442;SDS011;54311;51.726;5.154;2022-08-19T05:46:49;64.28;;;42.70;;
67442;SDS011;54311;51.726;5.154;2022-08-19T05:49:18;62.78;;;44.70;;
67442;SDS011;54311;51.726;5.154;2022-08-19T05:51:43;65.95;;;43.30;;
67442;SDS011;54311;51.726;5.154;2022-08-19T05:54:08;66.78;;;43.67;;
67442;SDS011;54311;51.726;5.154;2022-08-19T05:56:34;67.82;;;44.22;;
67442;SDS011;54311;51.726;5.154;2022-08-19T05:59:03;64.38;;;43.63;;
67442;SDS011;54311;51.726;5.154;2022-08-19T06:01:29;63.78;;;44.38;;
67442;SDS011;54311;51.726;5.154;2022-08-19T06:03:54;64.40;;;44.07;;
67442;SDS011;54311;51.726;5.154;2022-08-19T06:06:20;63.92;;;43.80;;
67442;SDS011;54311;51.726;5.154;2022-08-19T06:08:45;68.85;;;43.38;;
67442;SDS011;54311;51.726;5.154;2022-08-19T06:13:40;79.00;;;46.70;;
67442;SDS011;54311;51.726;5.154;2022-08-19T06:16:05;72.40;;;44.27;;
67442;SDS011;54311;51.726;5.154;2022-08-19T06:18:30;76.47;;;43.30;;
67442;SDS011;54311;51.726;5.154;2022-08-19T06:20:55;78.13;;;45.67;;
67442;SDS011;54311;51.726;5.154;2022-08-19T06:23:21;77.90;;;46.30;;
67442;SDS011;54311;51.726;5.154;2022-08-19T06:25:46;87.85;;;46.97;;
67442;SDS011;54311;51.726;5.154;2022-08-19T06:28:11;83.27;;;49.37;;
67442;SDS011;54311;51.726;5.154;2022-08-19T06:30:37;86.37;;;48.37;;
67442;SDS011;54311;51.726;5.154;2022-08-19T06:33:02;91.73;;;48.37;;
67442;SDS011;54311;51.726;5.154;2022-08-19T06:35:27;86.07;;;46.87;;
67442;SDS011;54311;51.726;5.154;2022-08-19T06:37:54;73.63;;;44.78;;
67442;SDS011;54311;51.726;5.154;2022-08-19T06:40:19;71.70;;;43.63;;
67442;SDS011;54311;51.726;5.154;2022-08-19T06:42:44;78.07;;;43.83;;
67442;SDS011;54311;51.726;5.154;2022-08-19T06:45:09;81.37;;;45.10;;
67442;SDS011;54311;51.726;5.154;2022-08-19T06:47:35;83.60;;;44.67;;
67442;SDS011;54311;51.726;5.154;2022-08-19T06:50:01;84.90;;;44.88;;
67442;SDS011;54311;51.726;5.154;2022-08-19T06:52:27;83.47;;;43.50;;
67442;SDS011;54311;51.726;5.154;2022-08-19T06:54:53;78.28;;;43.40;;
67442;SDS011;54311;51.726;5.154;2022-08-19T06:57:21;80.00;;;44.60;;
67442;SDS011;54311;51.726;5.154;2022-08-19T06:59:46;77.60;;;43.95;;
67442;SDS011;54311;51.726;5.154;2022-08-19T07:02:11;78.80;;;43.35;;
67442;SDS011;54311;51.726;5.154;2022-08-19T07:04:36;75.97;;;43.13;;
67442;SDS011;54311;51.726;5.154;2022-08-19T07:09:28;84.73;;;42.87;;
67442;SDS011;54311;51.726;5.154;2022-08-19T07:11:54;75.23;;;43.87;;
67442;SDS011;54311;51.726;5.154;2022-08-19T07:14:21;75.07;;;42.38;;
67442;SDS011;54311;51.726;5.154;2022-08-19T07:16:47;76.20;;;44.53;;
67442;SDS011;54311;51.726;5.154;2022-08-19T07:19:13;83.50;;;46.15;;
67442;SDS011;54311;51.726;5.154;2022-08-19T07:21:39;78.10;;;44.72;;
67442;SDS011;54311;51.726;5.154;2022-08-19T07:24:04;74.70;;;43.63;;
67442;SDS011;54311;51.726;5.154;2022-08-19T07:26:31;78.22;;;45.17;;
67442;SDS011;54311;51.726;5.154;2022-08-19T07:28:57;80.03;;;44.63;;
67442;SDS011;54311;51.726;5.154;2022-08-19T07:31:24;77.00;;;44.95;;
67442;SDS011;54311;51.726;5.154;2022-08-19T07:33:50;75.22;;;45.10;;
67442;SDS011;54311;51.726;5.154;2022-08-19T07:36:16;90.93;;;45.70;;
67442;SDS011;54311;51.726;5.154;2022-08-19T07:38:43;78.28;;;43.70;;
67442;SDS011;54311;51.726;5.154;2022-08-19T07:41:10;80.35;;;45.13;;
67442;SDS011;54311;51.726;5.154;2022-08-19T07:43:36;70.85;;;43.22;;
67442;SDS011;54311;51.726;5.154;2022-08-19T07:46:02;82.10;;;41.55;;
67442;SDS011;54311;51.726;5.154;2022-08-19T07:48:27;76.22;;;40.83;;
67442;SDS011;54311;51.726;5.154;2022-08-19T07:50:54;73.10;;;42.78;;
67442;SDS011;54311;51.726;5.154;2022-08-19T07:53:21;66.88;;;40.97;;
67442;SDS011;54311;51.726;5.154;2022-08-19T07:55:46;68.28;;;41.33;;
67442;SDS011;54311;51.726;5.154;2022-08-19T07:58:12;74.13;;;42.83;;
67442;SDS011;54311;51.726;5.154;2022-08-19T08:00:38;67.63;;;40.80;;
67442;SDS011;54311;51.726;5.154;2022-08-19T08:03:03;63.90;;;39.80;;
67442;SDS011;54311;51.726;5.154;2022-08-19T08:05:28;70.72;;;43.60;;
67442;SDS011;54311;51.726;5.154;2022-08-19T08:08:12;65.25;;;42.38;;
67442;SDS011;54311;51.726;5.154;2022-08-19T08:10:56;71.30;;;42.53;;
67442;SDS011;54311;51.726;5.154;2022-08-19T08:13:21;74.00;;;41.83;;
67442;SDS011;54311;51.726;5.154;2022-08-19T08:15:47;73.55;;;42.20;;
67442;SDS011;54311;51.726;5.154;2022-08-19T08:18:12;72.78;;;40.58;;
67442;SDS011;54311;51.726;5.154;2022-08-19T08:20:38;62.88;;;39.25;;
67442;SDS011;54311;51.726;5.154;2022-08-19T08:23:04;70.38;;;41.25;;
67442;SDS011;54311;51.726;5.154;2022-08-19T08:25:50;67.78;;;40.92;;
67442;SDS011;54311;51.726;5.154;2022-08-19T08:28:19;75.57;;;42.80;;
67442;SDS011;54311;51.726;5.154;2022-08-19T08:30:44;72.93;;;41.75;;
67442;SDS011;54311;51.726;5.154;2022-08-19T08:33:12;74.57;;;42.38;;
67442;SDS011;54311;51.726;5.154;2022-08-19T08:35:38;76.32;;;42.92;;
67442;SDS011;54311;51.726;5.154;2022-08-19T08:38:06;73.40;;;44.28;;
67442;SDS011;54311;51.726;5.154;2022-08-19T08:41:05;76.60;;;46.37;;
67442;SDS011;54311;51.726;5.154;2022-08-19T08:43:33;75.20;;;44.35;;
67442;SDS011;54311;51.726;5.154;2022-08-19T08:46:06;73.28;;;43.92;;
67442;SDS011;54311;51.726;5.154;2022-08-19T08:50:58;73.80;;;45.53;;
67442;SDS011;54311;51.726;5.154;2022-08-19T08:53:23;65.85;;;44.10;;
67442;SDS011;54311;51.726;5.154;2022-08-19T08:55:49;64.95;;;43.33;;
67442;SDS011;54311;51.726;5.154;2022-08-19T08:58:21;73.10;;;45.03;;
67442;SDS011;54311;51.726;5.154;2022-08-19T09:00:49;69.72;;;42.95;;
67442;SDS011;54311;51.726;5.154;2022-08-19T09:05:57;74.15;;;43.30;;
67442;SDS011;54311;51.726;5.154;2022-08-19T09:08:29;65.55;;;43.47;;
67442;SDS011;54311;51.726;5.154;2022-08-19T09:10:57;73.90;;;44.15;;
67442;SDS011;54311;51.726;5.154;2022-08-19T09:13:27;70.20;;;44.95;;
67442;SDS011;54311;51.726;5.154;2022-08-19T09:16:06;65.32;;;44.15;;
67442;SDS011;54311;51.726;5.154;2022-08-19T09:21:06;60.80;;;40.45;;
67442;SDS011;54311;51.726;5.154;2022-08-19T09:23:32;60.35;;;37.53;;
67442;SDS011;54311;51.726;5.154;2022-08-19T09:25:57;56.03;;;37.63;;
67442;SDS011;54311;51.726;5.154;2022-08-19T09:28:22;61.63;;;39.60;;
67442;SDS011;54311;51.726;5.154;2022-08-19T09:30:48;59.23;;;38.27;;
67442;SDS011;54311;51.726;5.154;2022-08-19T09:33:13;49.55;;;35.90;;
67442;SDS011;54311;51.726;5.154;2022-08-19T09:35:38;49.87;;;36.37;;
67442;SDS011;54311;51.726;5.154;2022-08-19T09:38:04;52.37;;;33.03;;
67442;SDS011;54311;51.726;5.154;2022-08-19T09:40:29;54.72;;;33.30;;
67442;SDS011;54311;51.726;5.154;2022-08-19T09:42:56;44.95;;;32.38;;
67442;SDS011;54311;51.726;5.154;2022-08-19T09:45:22;47.85;;;31.85;;
67442;SDS011;54311;51.726;5.154;2022-08-19T09:47:51;46.17;;;30.48;;
67442;SDS011;54311;51.726;5.154;2022-08-19T09:50:17;42.63;;;30.30;;
67442;SDS011;54311;51.726;5.154;2022-08-19T09:52:43;38.47;;;28.67;;
67442;SDS011;54311;51.726;5.154;2022-08-19T09:55:09;44.63;;;30.02;;
67442;SDS011;54311;51.726;5.154;2022-08-19T09:57:35;38.97;;;27.75;;
67442;SDS011;54311;51.726;5.154;2022-08-19T10:00:00;46.03;;;27.98;;
67442;SDS011;54311;51.726;5.154;2022-08-19T10:02:25;40.38;;;26.75;;
67442;SDS011;54311;51.726;5.154;2022-08-19T10:04:51;35.63;;;26.07;;
67442;SDS011;54311;51.726;5.154;2022-08-19T10:07:34;36.63;;;25.67;;
67442;SDS011;54311;51.726;5.154;2022-08-19T10:10:00;35.92;;;24.65;;
67442;SDS011;54311;51.726;5.154;2022-08-19T10:12:25;37.97;;;23.92;;
67442;SDS011;54311;51.726;5.154;2022-08-19T10:14:50;37.27;;;24.37;;
67442;SDS011;54311;51.726;5.154;2022-08-19T10:17:18;36.03;;;24.88;;
67442;SDS011;54311;51.726;5.154;2022-08-19T10:19:43;35.67;;;24.10;;
67442;SDS011;54311;51.726;5.154;2022-08-19T10:22:08;37.38;;;25.33;;
67442;SDS011;54311;51.726;5.154;2022-08-19T10:24:36;30.02;;;24.05;;
67442;SDS011;54311;51.726;5.154;2022-08-19T10:27:01;33.17;;;23.75;;
67442;SDS011;54311;51.726;5.154;2022-08-19T10:29:30;32.83;;;24.80;;
67442;SDS011;54311;51.726;5.154;2022-08-19T10:31:56;33.45;;;25.63;;
67442;SDS011;54311;51.726;5.154;2022-08-19T10:34:23;28.92;;;24.40;;
67442;SDS011;54311;51.726;5.154;2022-08-19T10:36:48;31.63;;;23.23;;
67442;SDS011;54311;51.726;5.154;2022-08-19T10:39:14;29.83;;;23.63;;
67442;SDS011;54311;51.726;5.154;2022-08-19T10:41:39;32.20;;;23.92;;
67442;SDS011;54311;51.726;5.154;2022-08-19T10:44:07;34.15;;;23.67;;
67442;SDS011;54311;51.726;5.154;2022-08-19T10:46:33;29.38;;;22.73;;
67442;SDS011;54311;51.726;5.154;2022-08-19T10:48:59;32.55;;;25.13;;
67442;SDS011;54311;51.726;5.154;2022-08-19T10:51:25;35.33;;;22.88;;
67442;SDS011;54311;51.726;5.154;2022-08-19T10:54:09;27.02;;;20.52;;
67442;SDS011;54311;51.726;5.154;2022-08-19T10:56:34;22.03;;;19.23;;
67442;SDS011;54311;51.726;5.154;2022-08-19T10:59:28;26.10;;;19.20;;
67442;SDS011;54311;51.726;5.154;2022-08-19T11:01:54;23.83;;;19.02;;
67442;SDS011;54311;51.726;5.154;2022-08-19T11:04:23;23.33;;;19.83;;
67442;SDS011;54311;51.726;5.154;2022-08-19T11:06:49;25.05;;;19.00;;
67442;SDS011;54311;51.726;5.154;2022-08-19T11:09:15;20.48;;;18.23;;
67442;SDS011;54311;51.726;5.154;2022-08-19T11:11:42;22.50;;;17.92;;
67442;SDS011;54311;51.726;5.154;2022-08-19T11:14:08;21.77;;;16.70;;
67442;SDS011;54311;51.726;5.154;2022-08-19T11:16:34;21.08;;;18.25;;
67442;SDS011;54311;51.726;5.154;2022-08-19T11:18:59;21.10;;;18.60;;
67442;SDS011;54311;51.726;5.154;2022-08-19T11:21:26;22.35;;;16.65;;
67442;SDS011;54311;51.726;5.154;2022-08-19T11:23:56;18.50;;;15.00;;
67442;SDS011;54311;51.726;5.154;2022-08-19T11:26:22;18.38;;;14.75;;
67442;SDS011;54311;51.726;5.154;2022-08-19T11:28:48;17.90;;;15.07;;
67442;SDS011;54311;51.726;5.154;2022-08-19T11:31:14;17.60;;;15.30;;
67442;SDS011;54311;51.726;5.154;2022-08-19T11:33:40;17.85;;;15.57;;
67442;SDS011;54311;51.726;5.154;2022-08-19T11:36:05;19.60;;;16.20;;
67442;SDS011;54311;51.726;5.154;2022-08-19T11:38:30;18.30;;;15.48;;
67442;SDS011;54311;51.726;5.154;2022-08-19T11:40:56;19.27;;;16.07;;
67442;SDS011;54311;51.726;5.154;2022-08-19T11:43:21;20.00;;;16.45;;
67442;SDS011;54311;51.726;5.154;2022-08-19T11:45:47;16.97;;;15.37;;
67442;SDS011;54311;51.726;5.154;2022-08-19T11:48:13;18.52;;;16.60;;
67442;SDS011;54311;51.726;5.154;2022-08-19T11:50:38;19.33;;;14.60;;
67442;SDS011;54311;51.726;5.154;2022-08-19T11:53:07;17.63;;;15.82;;
67442;SDS011;54311;51.726;5.154;2022-08-19T11:55:32;16.33;;;14.73;;
67442;SDS011;54311;51.726;5.154;2022-08-19T11:57:57;18.20;;;15.63;;
67442;SDS011;54311;51.726;5.154;2022-08-19T12:00:22;20.23;;;14.85;;
67442;SDS011;54311;51.726;5.154;2022-08-19T12:02:47;21.57;;;15.53;;
67442;SDS011;54311;51.726;5.154;2022-08-19T12:05:13;23.30;;;17.20;;
67442;SDS011;54311;51.726;5.154;2022-08-19T12:07:38;20.23;;;17.08;;
67442;SDS011;54311;51.726;5.154;2022-08-19T12:10:04;21.70;;;19.38;;
67442;SDS011;54311;51.726;5.154;2022-08-19T12:12:29;28.40;;;20.33;;
67442;SDS011;54311;51.726;5.154;2022-08-19T12:14:55;23.67;;;18.53;;
67442;SDS011;54311;51.726;5.154;2022-08-19T12:17:23;22.73;;;18.75;;
67442;SDS011;54311;51.726;5.154;2022-08-19T12:19:48;24.83;;;19.85;;
67442;SDS011;54311;51.726;5.154;2022-08-19T12:22:14;25.60;;;20.10;;
67442;SDS011;54311;51.726;5.154;2022-08-19T12:24:39;26.03;;;19.90;;
67442;SDS011;54311;51.726;5.154;2022-08-19T12:27:04;24.50;;;20.43;;
67442;SDS011;54311;51.726;5.154;2022-08-19T12:29:29;33.93;;;21.87;;
67442;SDS011;54311;51.726;5.154;2022-08-19T12:31:55;38.13;;;27.27;;
67442;SDS011;54311;51.726;5.154;2022-08-19T12:34:26;41.38;;;29.85;;
67442;SDS011;54311;51.726;5.154;2022-08-19T12:36:54;42.08;;;30.05;;
67442;SDS011;54311;51.726;5.154;2022-08-19T12:39:19;38.37;;;31.77;;
67442;SDS011;54311;51.726;5.154;2022-08-19T12:41:45;40.80;;;33.67;;
67442;SDS011;54311;51.726;5.154;2022-08-19T12:44:10;45.87;;;36.83;;
67442;SDS011;54311;51.726;5.154;2022-08-19T12:46:35;48.80;;;37.20;;
67442;SDS011;54311;51.726;5.154;2022-08-19T12:49:01;42.70;;;35.83;;
67442;SDS011;54311;51.726;5.154;2022-08-19T12:51:26;38.45;;;31.60;;
67442;SDS011;54311;51.726;5.154;2022-08-19T12:53:51;28.25;;;24.83;;
67442;SDS011;54311;51.726;5.154;2022-08-19T12:56:17;32.13;;;24.03;;
67442;SDS011;54311;51.726;5.154;2022-08-19T12:58:43;34.05;;;23.30;;
67442;SDS011;54311;51.726;5.154;2022-08-19T13:01:10;25.40;;;21.07;;
67442;SDS011;54311;51.726;5.154;2022-08-19T13:03:35;30.23;;;21.58;;
67442;SDS011;54311;51.726;5.154;2022-08-19T13:06:01;26.92;;;21.42;;
67442;SDS011;54311;51.726;5.154;2022-08-19T13:08:27;31.35;;;22.88;;
67442;SDS011;54311;51.726;5.154;2022-08-19T13:10:52;26.60;;;21.67;;
67442;SDS011;54311;51.726;5.154;2022-08-19T13:13:18;26.25;;;22.63;;
67442;SDS011;54311;51.726;5.154;2022-08-19T13:15:43;23.80;;;19.43;;
67442;SDS011;54311;51.726;5.154;2022-08-19T13:18:10;27.88;;;19.88;;
67442;SDS011;54311;51.726;5.154;2022-08-19T13:20:36;23.55;;;18.52;;
67442;SDS011;54311;51.726;5.154;2022-08-19T13:23:02;21.95;;;19.50;;
67442;SDS011;54311;51.726;5.154;2022-08-19T13:25:27;23.13;;;18.83;;
67442;SDS011;54311;51.726;5.154;2022-08-19T13:27:52;25.93;;;19.50;;
67442;SDS011;54311;51.726;5.154;2022-08-19T13:30:18;25.37;;;18.27;;
67442;SDS011;54311;51.726;5.154;2022-08-19T13:33:02;24.05;;;19.35;;
67442;SDS011;54311;51.726;5.154;2022-08-19T13:36:19;22.45;;;19.23;;
67442;SDS011;54311;51.726;5.154;2022-08-19T13:38:26;23.10;;;19.30;;
67442;SDS011;54311;51.726;5.154;2022-08-19T13:40:52;22.15;;;18.10;;
67442;SDS011;54311;51.726;5.154;2022-08-19T13:43:18;21.85;;;19.55;;
67442;SDS011;54311;51.726;5.154;2022-08-19T13:45:44;20.70;;;18.50;;
67442;SDS011;54311;51.726;5.154;2022-08-19T13:48:09;20.67;;;18.38;;
67442;SDS011;54311;51.726;5.154;2022-08-19T13:50:37;22.10;;;16.33;;
67442;SDS011;54311;51.726;5.154;2022-08-19T13:53:03;18.85;;;16.73;;
67442;SDS011;54311;51.726;5.154;2022-08-19T13:55:28;11.85;;;10.73;;
67442;SDS011;54311;51.726;5.154;2022-08-19T13:57:55;11.73;;;10.60;;
67442;SDS011;54311;51.726;5.154;2022-08-19T14:00:21;12.55;;;11.32;;
67442;SDS011;54311;51.726;5.154;2022-08-19T14:02:50;11.35;;;10.30;;
67442;SDS011;54311;51.726;5.154;2022-08-19T14:05:16;12.40;;;11.30;;
67442;SDS011;54311;51.726;5.154;2022-08-19T14:07:41;12.73;;;11.52;;
67442;SDS011;54311;51.726;5.154;2022-08-19T14:10:07;13.03;;;11.63;;
67442;SDS011;54311;51.726;5.154;2022-08-19T14:12:33;12.60;;;11.32;;
67442;SDS011;54311;51.726;5.154;2022-08-19T14:14:58;13.05;;;11.75;;
67442;SDS011;54311;51.726;5.154;2022-08-19T14:17:23;13.15;;;11.82;;
67442;SDS011;54311;51.726;5.154;2022-08-19T14:19:49;13.07;;;11.68;;
67442;SDS011;54311;51.726;5.154;2022-08-19T14:22:15;12.48;;;11.27;;
67442;SDS011;54311;51.726;5.154;2022-08-19T14:24:40;10.83;;;8.90;;
67442;SDS011;54311;51.726;5.154;2022-08-19T14:27:06;12.03;;;9.00;;
67442;SDS011;54311;51.726;5.154;2022-08-19T14:29:31;10.25;;;9.25;;
67442;SDS011;54311;51.726;5.154;2022-08-19T14:31:56;10.00;;;9.10;;